Portada
METAR-TAF:

METAR-TAF

Aeroports :

Wittman Regional Airport

Oshkosh, Wisconsin, Estats Units d'Amèrica

latitud: 43-58-00N, longitud: 088-33-29W, altitud: 246 m

Observació

L'informe es va fer fa 31 minuts, a les 17:53 UTC
Vent 9 kt del Sud/Sud-Oest
Temperatura 28°C
Humitat 55%
Pressió 1010 hPa
Visibilitat: 16.1 km
Cel clar

METAR: KOSH 251753Z 20009KT 10SM CLR 28/18 A2982 RMK AO2 SLP084 T02830183 10289 20217 58016

Hora: 13:24 (18:24 UTC)


TAF: manca

Observacions i pronòstics meteorològics de més de 4000 aeroports (METAR i TAF).

Les estacions disponibles són els punts grocs i vermells al mapa.

Posi el ratolí al punt desitjat per veure el nom de l'estació.

Feu clic per veure les observacions i els pronòstics meteorològics.

Per canviar el mapa: feu clic els botons verds amb una creu de color negre per apropar; al botó verd amb un guió per allunyar la imatge; o en les fletxes verdes per a mapes adjacents.


METAR-TAF: